Time,TemperatureF,DewpointF,PressureIn,WindDirection,WindDirectionDegrees,WindSpeedMPH,WindSpeedGustMPH,Humidity,HourlyPrecipIn,Conditions,Clouds,dailyrainin,SoftwareType,DateUTC
2013-03-21 00:00:00,25.3,17.3,30.14,NW,311,0.0,0.0,71,0.00,,,0.00,WUHU216DAVISVP2,2013-03-21 05:00:00,
2013-03-21 00:05:00,25.2,16.8,30.14,NW,311,0.0,0.0,70,0.00,,,0.00,WUHU216DAVISVP2,2013-03-21 05:05:00,
2013-03-21 00:10:00,25.0,17.0,30.14,WNW,286,0.0,0.0,71,0.00,,,0.00,WUHU216DAVISVP2,2013-03-21 05:10:00,
2013-03-21 00:15:00,25.0,16.6,30.14,WNW,287,0.0,0.0,70,0.00,,,0.00,WUHU216DAVISVP2,2013-03-21 05:15:00,
2013-03-21 00:20:00,24.8,16.7,30.14,WNW,287,0.0,0.0,71,0.00,,,0.00,WUHU216DAVISVP2,2013-03-21 05:20:00,
2013-03-21 00:25:00,24.8,17.4,30.13,WNW,287,0.0,0.0,73,0.00,,,0.00,WUHU216DAVISVP2,2013-03-21 05:25:00,
2013-03-21 00:30:00,24.7,17.9,30.13,WNW,287,0.0,0.0,75,0.00,,,0.00,WUHU216DAVISVP2,2013-03-21 05:30:00,
2013-03-21 00:35:00,24.6,17.2,30.13,WNW,285,0.0,0.0,73,0.00,,,0.00,WUHU216DAVISVP2,2013-03-21 05:35:00,
2013-03-21 00:40:00,24.6,16.9,30.13,WNW,285,0.0,0.0,72,0.00,,,0.00,WUHU216DAVISVP2,2013-03-21 05:40:00,
2013-03-21 00:45:00,24.6,17.2,30.13,WNW,285,0.0,0.0,73,0.00,,,0.00,WUHU216DAVISVP2,2013-03-21 05:45:00,
2013-03-21 00:50:00,24.5,16.8,30.13,WNW,285,0.0,0.0,72,0.00,,,0.00,WUHU216DAVISVP2,2013-03-21 05:50:00,
2013-03-21 00:55:00,24.6,16.6,30.13,WNW,285,0.0,0.0,71,0.00,,,0.00,WUHU216DAVISVP2,2013-03-21 05:55:00,
2013-03-21 01:00:00,24.5,17.1,30.14,WNW,285,1.0,1.0,73,0.00,,,0.00,WUHU216DAVISVP2,2013-03-21 06:00:00,
2013-03-21 01:05:00,24.5,16.5,30.14,WNW,285,0.0,1.0,71,0.00,,,0.00,WUHU216DAVISVP2,2013-03-21 06:05:00,
2013-03-21 01:10:00,24.3,16.6,30.14,WNW,285,0.0,1.0,72,0.00,,,0.00,WUHU216DAVISVP2,2013-03-21 06:10:00,
2013-03-21 01:15:00,24.3,16.6,30.14,West,271,0.0,3.0,72,0.00,,,0.00,WUHU216DAVISVP2,2013-03-21 06:15:00,
2013-03-21 01:20:00,24.2,16.8,30.14,West,271,0.0,3.0,73,0.00,,,0.00,WUHU216DAVISVP2,2013-03-21 06:20:00,
2013-03-21 01:25:00,24.1,17.4,30.14,West,281,0.0,1.0,75,0.00,,,0.00,WUHU216DAVISVP2,2013-03-21 06:25:00,
2013-03-21 01:30:00,24.1,17.4,30.14,West,278,0.0,1.0,75,0.00,,,0.00,WUHU216DAVISVP2,2013-03-21 06:30:00,
2013-03-21 01:35:00,24.0,17.3,30.13,West,278,0.0,1.0,75,0.00,,,0.00,WUHU216DAVISVP2,2013-03-21 06:35:00,
2013-03-21 01:40:00,23.9,17.5,30.14,West,279,1.0,1.0,76,0.00,,,0.00,WUHU216DAVISVP2,2013-03-21 06:40:00,
2013-03-21 01:45:00,24.0,17.0,30.14,WNW,287,0.0,1.0,74,0.00,,,0.00,WUHU216DAVISVP2,2013-03-21 06:45:00,
2013-03-21 01:50:00,23.9,16.9,30.14,WNW,285,1.0,1.0,74,0.00,,,0.00,WUHU216DAVISVP2,2013-03-21 06:50:00,
2013-03-21 01:55:00,23.8,17.4,30.13,WNW,282,0.0,1.0,76,0.00,,,0.00,WUHU216DAVISVP2,2013-03-21 06:55:00,
2013-03-21 02:00:00,23.8,17.7,30.14,WNW,282,0.0,1.0,77,0.00,,,0.00,WUHU216DAVISVP2,2013-03-21 07:00:00,
2013-03-21 02:05:00,23.7,17.6,30.13,WNW,283,0.0,1.0,77,0.00,,,0.00,WUHU216DAVISVP2,2013-03-21 07:05:00,
2013-03-21 02:10:00,23.6,17.4,30.14,WNW,283,1.0,1.0,77,0.00,,,0.00,WUHU216DAVISVP2,2013-03-21 07:10:00,
2013-03-21 02:15:00,23.6,18.3,30.13,WNW,283,0.0,1.0,80,0.00,,,0.00,WUHU216DAVISVP2,2013-03-21 07:15:00,
2013-03-21 02:20:00,23.6,18.6,30.13,WNW,283,0.0,1.0,81,0.00,,,0.00,WUHU216DAVISVP2,2013-03-21 07:20:00,
2013-03-21 02:25:00,23.5,18.8,30.13,WNW,283,0.0,1.0,82,0.00,,,0.00,WUHU216DAVISVP2,2013-03-21 07:25:00,
2013-03-21 02:30:00,23.5,17.1,30.13,NW,322,1.0,1.0,76,0.00,,,0.00,WUHU216DAVISVP2,2013-03-21 07:30:00,
2013-03-21 02:35:00,24.2,17.5,30.13,NW,311,2.0,4.0,75,0.00,,,0.00,WUHU216DAVISVP2,2013-03-21 07:35:00,
2013-03-21 02:40:00,24.6,17.5,30.13,NW,316,3.0,7.0,74,0.00,,,0.00,WUHU216DAVISVP2,2013-03-21 07:40:00,
2013-03-21 02:45:00,24.8,17.1,30.13,NW,326,3.0,7.0,72,0.00,,,0.00,WUHU216DAVISVP2,2013-03-21 07:45:00,
2013-03-21 02:50:00,24.8,16.8,30.12,NNW,327,4.0,5.0,71,0.00,,,0.00,WUHU216DAVISVP2,2013-03-21 07:50:00,
2013-03-21 02:55:00,24.8,17.1,30.12,NNW,328,4.0,5.0,72,0.00,,,0.00,WUHU216DAVISVP2,2013-03-21 07:55:00,
2013-03-21 03:00:00,24.6,16.9,30.12,NW,313,1.0,4.0,72,0.00,,,0.00,WUHU216DAVISVP2,2013-03-21 08:00:00,
2013-03-21 03:05:00,24.4,16.4,30.12,NW,316,3.0,4.0,71,0.00,,,0.00,WUHU216DAVISVP2,2013-03-21 08:05:00,
2013-03-21 03:10:00,24.4,16.4,30.12,NW,320,5.0,6.0,71,0.00,,,0.00,WUHU216DAVISVP2,2013-03-21 08:10:00,
2013-03-21 03:15:00,24.5,16.5,30.12,NW,326,6.0,7.0,71,0.00,,,0.00,WUHU216DAVISVP2,2013-03-21 08:15:00,
2013-03-21 03:20:00,24.6,16.2,30.12,NNW,328,5.0,7.0,70,0.00,,,0.00,WUHU216DAVISVP2,2013-03-21 08:20:00,
2013-03-21 03:25:00,24.6,16.6,30.12,NW,323,5.0,7.0,71,0.00,,,0.00,WUHU216DAVISVP2,2013-03-21 08:25:00,
2013-03-21 03:30:00,24.5,16.5,30.12,NNW,333,5.0,7.0,71,0.00,,,0.00,WUHU216DAVISVP2,2013-03-21 08:30:00,
2013-03-21 03:35:00,24.4,15.7,30.12,NNW,340,5.0,7.0,69,0.00,,,0.00,WUHU216DAVISVP2,2013-03-21 08:35:00,
2013-03-21 03:40:00,24.4,15.7,30.11,North,352,5.0,7.0,69,0.00,,,0.00,WUHU216DAVISVP2,2013-03-21 08:40:00,
2013-03-21 03:45:00,24.3,16.3,30.11,NW,325,5.0,7.0,71,0.00,,,0.00,WUHU216DAVISVP2,2013-03-21 08:45:00,
2013-03-21 03:50:00,24.2,15.5,30.11,NNW,336,4.0,6.0,69,0.00,,,0.00,WUHU216DAVISVP2,2013-03-21 08:50:00,
2013-03-21 03:56:00,24.2,15.9,30.11,North,354,2.0,6.0,70,0.00,,,0.00,WUHU216DAVISVP2,2013-03-21 08:56:00,
2013-03-21 04:00:00,24.1,16.4,30.11,NNW,334,5.0,6.0,72,0.00,,,0.00,WUHU216DAVISVP2,2013-03-21 09:00:00,
2013-03-21 04:05:00,24.0,15.7,30.11,NNW,341,3.0,6.0,70,0.00,,,0.00,WUHU216DAVISVP2,2013-03-21 09:05:00,
2013-03-21 04:10:00,24.0,15.7,30.11,NW,314,3.0,6.0,70,0.00,,,0.00,WUHU216DAVISVP2,2013-03-21 09:10:00,
2013-03-21 04:15:00,24.0,15.7,30.11,NW,324,4.0,6.0,70,0.00,,,0.00,WUHU216DAVISVP2,2013-03-21 09:15:00,
2013-03-21 04:20:00,24.1,15.8,30.11,NW,314,2.0,10.0,70,0.00,,,0.00,WUHU216DAVISVP2,2013-03-21 09:20:00,
2013-03-21 04:25:00,24.0,15.7,30.11,NW,314,5.0,10.0,70,0.00,,,0.00,WUHU216DAVISVP2,2013-03-21 09:25:00,
2013-03-21 04:30:00,24.0,15.0,30.11,NW,322,6.0,8.0,68,0.00,,,0.00,WUHU216DAVISVP2,2013-03-21 09:30:00,
2013-03-21 04:35:00,24.0,14.3,30.11,NW,321,6.0,8.0,66,0.00,,,0.00,WUHU216DAVISVP2,2013-03-21 09:35:00,
2013-03-21 04:40:00,24.0,15.0,30.11,NW,318,4.0,8.0,68,0.00,,,0.00,WUHU216DAVISVP2,2013-03-21 09:40:00,
2013-03-21 04:46:00,24.0,15.0,30.11,NNW,338,5.0,7.0,68,0.00,,,0.00,WUHU216DAVISVP2,2013-03-21 09:46:00,
2013-03-21 04:51:00,23.8,15.2,30.11,NW,323,4.0,6.0,69,0.00,,,0.00,WUHU216DAVISVP2,2013-03-21 09:51:00,
2013-03-21 04:56:00,23.7,14.7,30.10,NNW,338,3.0,6.0,68,0.00,,,0.00,WUHU216DAVISVP2,2013-03-21 09:56:00,
2013-03-21 05:01:00,23.6,14.6,30.10,NW,313,4.0,5.0,68,0.00,,,0.00,WUHU216DAVISVP2,2013-03-21 10:01:00,
2013-03-21 05:06:00,23.6,14.6,30.10,NW,320,5.0,5.0,68,0.00,,,0.00,WUHU216DAVISVP2,2013-03-21 10:06:00,
2013-03-21 05:11:00,23.7,14.7,30.10,NNW,333,5.0,6.0,68,0.00,,,0.00,WUHU216DAVISVP2,2013-03-21 10:11:00,
2013-03-21 05:16:00,23.6,14.6,30.10,NW,314,5.0,7.0,68,0.00,,,0.00,WUHU216DAVISVP2,2013-03-21 10:16:00,
2013-03-21 05:21:00,23.7,14.7,30.10,NNW,339,6.0,7.0,68,0.00,,,0.00,WUHU216DAVISVP2,2013-03-21 10:21:00,
2013-03-21 05:26:00,23.6,15.0,30.10,NW,321,2.0,7.0,69,0.00,,,0.00,WUHU216DAVISVP2,2013-03-21 10:26:00,
2013-03-21 05:31:00,23.4,14.4,30.10,NNW,331,4.0,7.0,68,0.00,,,0.00,WUHU216DAVISVP2,2013-03-21 10:31:00,
2013-03-21 05:36:00,23.3,15.0,30.10,NW,311,2.0,5.0,70,0.00,,,0.00,WUHU216DAVISVP2,2013-03-21 10:36:00,
2013-03-21 05:41:00,23.1,14.8,30.11,NW,306,1.0,5.0,70,0.00,,,0.00,WUHU216DAVISVP2,2013-03-21 10:41:00,
2013-03-21 05:46:00,23.1,14.8,30.11,WNW,302,3.0,5.0,70,0.00,,,0.00,WUHU216DAVISVP2,2013-03-21 10:46:00,
2013-03-21 05:51:00,23.1,15.1,30.11,NNW,332,4.0,5.0,71,0.00,,,0.00,WUHU216DAVISVP2,2013-03-21 10:51:00,
2013-03-21 05:56:00,22.9,14.9,30.11,NW,325,4.0,5.0,71,0.00,,,0.00,WUHU216DAVISVP2,2013-03-21 10:56:00,
2013-03-21 06:01:00,22.8,14.8,30.11,NW,313,1.0,4.0,71,0.00,,,0.00,WUHU216DAVISVP2,2013-03-21 11:01:00,
2013-03-21 06:06:00,22.7,15.1,30.12,NW,323,3.0,4.0,72,0.00,,,0.00,WUHU216DAVISVP2,2013-03-21 11:06:00,
2013-03-21 06:11:00,22.7,15.4,30.12,NW,326,3.0,4.0,73,0.00,,,0.00,WUHU216DAVISVP2,2013-03-21 11:11:00,
2013-03-21 06:16:00,22.7,15.1,30.12,NW,316,2.0,5.0,72,0.00,,,0.00,WUHU216DAVISVP2,2013-03-21 11:16:00,
2013-03-21 06:22:00,22.5,15.5,30.12,NW,320,1.0,5.0,74,0.00,,,0.00,WUHU216DAVISVP2,2013-03-21 11:22:00,
2013-03-21 06:27:00,22.5,15.5,30.12,NW,319,1.0,3.0,74,0.00,,,0.00,WUHU216DAVISVP2,2013-03-21 11:27:00,
2013-03-21 06:32:00,22.4,15.4,30.12,NW,307,1.0,3.0,74,0.00,,,0.00,WUHU216DAVISVP2,2013-03-21 11:32:00,
2013-03-21 06:37:00,22.3,15.3,30.13,NW,316,0.0,3.0,74,0.00,,,0.00,WUHU216DAVISVP2,2013-03-21 11:37:00,
2013-03-21 06:42:00,22.3,15.3,30.13,NW,305,2.0,4.0,74,0.00,,,0.00,WUHU216DAVISVP2,2013-03-21 11:42:00,
2013-03-21 06:47:00,22.4,15.1,30.13,WNW,303,3.0,5.0,73,0.00,,,0.00,WUHU216DAVISVP2,2013-03-21 11:47:00,
2013-03-21 06:52:00,22.3,15.0,30.13,NW,317,2.0,5.0,73,0.00,,,0.00,WUHU216DAVISVP2,2013-03-21 11:52:00,
2013-03-21 06:57:00,22.2,14.9,30.13,NW,314,2.0,5.0,73,0.00,,,0.00,WUHU216DAVISVP2,2013-03-21 11:57:00,
2013-03-21 07:02:00,22.1,14.8,30.13,NW,305,1.0,3.0,73,0.00,,,0.00,WUHU216DAVISVP2,2013-03-21 12:02:00,
2013-03-21 07:07:00,22.0,14.7,30.13,NW,323,1.0,3.0,73,0.00,,,0.00,WUHU216DAVISVP2,2013-03-21 12:07:00,
2013-03-21 07:12:00,22.3,14.7,30.13,WNW,288,0.0,2.0,72,0.00,,,0.00,WUHU216DAVISVP2,2013-03-21 12:12:00,
2013-03-21 07:17:00,22.5,14.9,30.13,NW,313,1.0,3.0,72,0.00,,,0.00,WUHU216DAVISVP2,2013-03-21 12:17:00,
2013-03-21 07:22:00,22.7,15.1,30.13,NW,307,1.0,3.0,72,0.00,,,0.00,WUHU216DAVISVP2,2013-03-21 12:22:00,
2013-03-21 07:27:00,22.7,15.1,30.14,WNW,293,0.0,3.0,72,0.00,,,0.00,WUHU216DAVISVP2,2013-03-21 12:27:00,
2013-03-21 07:32:00,23.1,15.1,30.14,WNW,288,3.0,4.0,71,0.00,,,0.00,WUHU216DAVISVP2,2013-03-21 12:32:00,
2013-03-21 07:37:00,23.3,15.3,30.14,NW,310,1.0,4.0,71,0.00,,,0.00,WUHU216DAVISVP2,2013-03-21 12:37:00,
2013-03-21 07:42:00,23.4,15.1,30.14,NW,309,1.0,4.0,70,0.00,,,0.00,WUHU216DAVISVP2,2013-03-21 12:42:00,
2013-03-21 07:47:00,23.6,15.3,30.14,NW,319,1.0,4.0,70,0.00,,,0.00,WUHU216DAVISVP2,2013-03-21 12:47:00,
2013-03-21 07:52:00,23.8,15.2,30.14,WNW,298,2.0,4.0,69,0.00,,,0.00,WUHU216DAVISVP2,2013-03-21 12:52:00,
2013-03-21 07:57:00,24.1,15.8,30.14,WNW,292,4.0,4.0,70,0.00,,,0.00,WUHU216DAVISVP2,2013-03-21 12:57:00,
2013-03-21 08:02:00,24.2,15.9,30.14,NW,307,3.0,5.0,70,0.00,,,0.00,WUHU216DAVISVP2,2013-03-21 13:02:00,
2013-03-21 08:07:00,24.4,15.7,30.14,NW,309,3.0,6.0,69,0.00,,,0.00,WUHU216DAVISVP2,2013-03-21 13:07:00,
2013-03-21 08:12:00,24.4,15.7,30.14,NW,307,4.0,7.0,69,0.00,,,0.00,WUHU216DAVISVP2,2013-03-21 13:12:00,
2013-03-21 08:17:00,24.6,15.3,30.14,NNW,327,9.0,10.0,67,0.00,,,0.00,WUHU216DAVISVP2,2013-03-21 13:17:00,
2013-03-21 08:22:00,24.7,15.0,30.14,NW,315,6.0,10.0,66,0.00,,,0.00,WUHU216DAVISVP2,2013-03-21 13:22:00,
2013-03-21 08:27:00,24.6,14.9,30.14,NNW,327,10.0,11.0,66,0.00,,,0.00,WUHU216DAVISVP2,2013-03-21 13:27:00,
2013-03-21 08:32:00,24.2,14.9,30.14,NNW,333,6.0,11.0,67,0.00,,,0.00,WUHU216DAVISVP2,2013-03-21 13:32:00,
2013-03-21 08:37:00,23.9,14.6,30.15,NNW,328,8.0,11.0,67,0.00,,,0.00,WUHU216DAVISVP2,2013-03-21 13:37:00,
2013-03-21 08:42:00,23.8,14.5,30.15,NW,326,7.0,11.0,67,0.00,,,0.00,WUHU216DAVISVP2,2013-03-21 13:42:00,
2013-03-21 08:47:00,23.8,14.5,30.15,NNW,333,4.0,10.0,67,0.00,,,0.00,WUHU216DAVISVP2,2013-03-21 13:47:00,
2013-03-21 08:52:00,23.8,14.8,30.15,NW,312,4.0,10.0,68,0.00,,,0.00,WUHU216DAVISVP2,2013-03-21 13:52:00,
2013-03-21 08:58:00,24.5,15.8,30.15,NNW,333,2.0,10.0,69,0.00,,,0.00,WUHU216DAVISVP2,2013-03-21 13:58:00,
2013-03-21 09:03:00,25.4,16.4,30.15,WNW,302,4.0,6.0,68,0.00,,,0.00,WUHU216DAVISVP2,2013-03-21 14:03:00,
2013-03-21 09:08:00,25.6,16.2,30.15,NW,312,4.0,7.0,67,0.00,,,0.00,WUHU216DAVISVP2,2013-03-21 14:08:00,
2013-03-21 09:13:00,25.6,15.2,30.15,WNW,291,3.0,7.0,64,0.00,,,0.00,WUHU216DAVISVP2,2013-03-21 14:13:00,
2013-03-21 09:18:00,25.5,15.4,30.15,NW,326,7.0,12.0,65,0.00,,,0.00,WUHU216DAVISVP2,2013-03-21 14:18:00,
2013-03-21 09:23:00,25.5,14.7,30.15,WNW,295,5.0,12.0,63,0.00,,,0.00,WUHU216DAVISVP2,2013-03-21 14:23:00,
2013-03-21 09:28:00,25.4,15.0,30.15,NW,316,4.0,10.0,64,0.00,,,0.00,WUHU216DAVISVP2,2013-03-21 14:28:00,
2013-03-21 09:33:00,25.6,15.1,30.16,NW,304,5.0,10.0,64,0.00,,,0.00,WUHU216DAVISVP2,2013-03-21 14:33:00,
2013-03-21 09:38:00,25.5,14.3,30.15,NNW,337,5.0,8.0,62,0.00,,,0.00,WUHU216DAVISVP2,2013-03-21 14:38:00,
2013-03-21 09:43:00,25.6,15.2,30.16,NNW,330,6.0,8.0,64,0.00,,,0.00,WUHU216DAVISVP2,2013-03-21 14:43:00,
2013-03-21 09:48:00,25.6,14.4,30.16,North,360,3.0,8.0,62,0.00,,,0.00,WUHU216DAVISVP2,2013-03-21 14:48:00,
2013-03-21 09:53:00,26.0,14.8,30.16,NNW,341,9.0,9.0,62,0.00,,,0.00,WUHU216DAVISVP2,2013-03-21 14:53:00,
2013-03-21 09:58:00,26.5,15.3,30.16,NW,326,2.0,9.0,62,0.00,,,0.00,WUHU216DAVISVP2,2013-03-21 14:58:00,
2013-03-21 10:03:00,26.5,15.3,30.16,NNW,341,5.0,8.0,62,0.00,,,0.00,WUHU216DAVISVP2,2013-03-21 15:03:00,
2013-03-21 10:08:00,26.2,15.0,30.16,NNW,342,7.0,9.0,62,0.00,,,0.00,WUHU216DAVISVP2,2013-03-21 15:08:00,
2013-03-21 10:13:00,26.3,14.7,30.16,NW,304,4.0,9.0,61,0.00,,,0.00,WUHU216DAVISVP2,2013-03-21 15:13:00,
2013-03-21 10:18:00,25.9,14.7,30.16,NNW,327,7.0,8.0,62,0.00,,,0.00,WUHU216DAVISVP2,2013-03-21 15:18:00,
2013-03-21 10:23:00,25.4,13.8,30.16,NW,326,2.0,10.0,61,0.00,,,0.00,WUHU216DAVISVP2,2013-03-21 15:23:00,
2013-03-21 10:28:00,25.5,13.6,30.16,NW,323,1.0,10.0,60,0.00,,,0.00,WUHU216DAVISVP2,2013-03-21 15:28:00,
2013-03-21 10:33:00,26.5,15.3,30.16,NW,316,6.0,8.0,62,0.00,,,0.00,WUHU216DAVISVP2,2013-03-21 15:33:00,
2013-03-21 10:38:00,26.5,14.9,30.16,NNW,328,4.0,8.0,61,0.00,,,0.00,WUHU216DAVISVP2,2013-03-21 15:38:00,
2013-03-21 10:43:00,26.7,15.1,30.16,NE,41,1.0,11.0,61,0.00,,,0.00,WUHU216DAVISVP2,2013-03-21 15:43:00,
2013-03-21 10:48:00,27.1,15.0,30.16,NNW,340,9.0,11.0,60,0.00,,,0.00,WUHU216DAVISVP2,2013-03-21 15:48:00,
2013-03-21 10:53:00,27.0,15.0,30.16,NW,316,4.0,9.0,60,0.00,,,0.00,WUHU216DAVISVP2,2013-03-21 15:53:00,
2013-03-21 10:58:00,27.4,15.8,30.16,NNW,337,7.0,10.0,61,0.00,,,0.00,WUHU216DAVISVP2,2013-03-21 15:58:00,
2013-03-21 11:03:00,27.3,15.7,30.16,NNW,333,5.0,10.0,61,0.00,,,0.00,WUHU216DAVISVP2,2013-03-21 16:03:00,
2013-03-21 11:08:00,27.2,14.8,30.16,NW,326,6.0,11.0,59,0.00,,,0.00,WUHU216DAVISVP2,2013-03-21 16:08:00,
2013-03-21 11:13:00,27.1,15.5,30.16,WNW,301,5.0,11.0,61,0.00,,,0.00,WUHU216DAVISVP2,2013-03-21 16:13:00,
2013-03-21 11:18:00,27.8,16.1,30.16,ENE,58,4.0,10.0,61,0.00,,,0.00,WUHU216DAVISVP2,2013-03-21 16:18:00,
2013-03-21 11:23:00,28.2,14.9,30.16,NW,311,7.0,9.0,57,0.00,,,0.00,WUHU216DAVISVP2,2013-03-21 16:23:00,
2013-03-21 11:28:00,28.5,16.4,30.16,NNW,335,9.0,9.0,60,0.00,,,0.00,WUHU216DAVISVP2,2013-03-21 16:28:00,
2013-03-21 11:33:00,29.1,16.6,30.16,NNW,340,5.0,10.0,59,0.00,,,0.00,WUHU216DAVISVP2,2013-03-21 16:33:00,
2013-03-21 11:38:00,28.4,15.9,30.16,NW,326,4.0,12.0,59,0.00,,,0.00,WUHU216DAVISVP2,2013-03-21 16:38:00,
2013-03-21 11:43:00,28.5,15.6,30.15,ENE,74,2.0,12.0,58,0.00,,,0.00,WUHU216DAVISVP2,2013-03-21 16:43:00,
2013-03-21 11:48:00,28.6,15.7,30.15,WNW,300,2.0,7.0,58,0.00,,,0.00,WUHU216DAVISVP2,2013-03-21 16:48:00,
2013-03-21 11:53:00,28.8,15.5,30.15,ENE,72,3.0,7.0,57,0.00,,,0.00,WUHU216DAVISVP2,2013-03-21 16:53:00,
2013-03-21 11:58:00,28.9,15.6,30.15,NW,324,4.0,10.0,57,0.00,,,0.00,WUHU216DAVISVP2,2013-03-21 16:58:00,
2013-03-21 12:03:00,29.5,16.6,30.15,WNW,285,3.0,10.0,58,0.00,,,0.00,WUHU216DAVISVP2,2013-03-21 17:03:00,
2013-03-21 12:08:00,29.3,16.0,30.15,NW,321,6.0,9.0,57,0.00,,,0.00,WUHU216DAVISVP2,2013-03-21 17:08:00,
2013-03-21 12:13:00,28.9,16.4,30.15,North,349,6.0,9.0,59,0.00,,,0.00,WUHU216DAVISVP2,2013-03-21 17:13:00,
2013-03-21 12:18:00,29.3,15.9,30.15,East,80,1.0,9.0,57,0.00,,,0.00,WUHU216DAVISVP2,2013-03-21 17:18:00,
2013-03-21 12:23:00,29.6,16.2,30.15,ENE,74,1.0,6.0,57,0.00,,,0.00,WUHU216DAVISVP2,2013-03-21 17:23:00,
2013-03-21 12:28:00,30.5,18.3,30.15,West,279,0.0,6.0,60,0.00,,,0.00,WUHU216DAVISVP2,2013-03-21 17:28:00,
2013-03-21 12:33:00,30.9,18.3,30.15,NNW,338,3.0,6.0,59,0.00,,,0.00,WUHU216DAVISVP2,2013-03-21 17:33:00,
2013-03-21 12:38:00,30.4,16.2,30.14,NW,311,3.0,7.0,55,0.00,,,0.00,WUHU216DAVISVP2,2013-03-21 17:38:00,
2013-03-21 12:43:00,30.5,16.7,30.14,NNW,338,2.0,7.0,56,0.00,,,0.00,WUHU216DAVISVP2,2013-03-21 17:43:00,
2013-03-21 12:48:00,30.5,16.2,30.14,WSW,243,2.0,8.0,55,0.00,,,0.00,WUHU216DAVISVP2,2013-03-21 17:48:00,
2013-03-21 12:53:00,30.6,14.6,30.14,WNW,293,2.0,8.0,51,0.00,,,0.00,WUHU216DAVISVP2,2013-03-21 17:53:00,
2013-03-21 12:59:00,31.1,15.9,30.14,SSW,198,0.0,5.0,53,0.00,,,0.00,WUHU216DAVISVP2,2013-03-21 17:59:00,
2013-03-21 13:04:00,31.7,16.9,30.13,NW,318,1.0,4.0,54,0.00,,,0.00,WUHU216DAVISVP2,2013-03-21 18:04:00,
2013-03-21 13:09:00,31.6,16.8,30.13,NW,324,1.0,5.0,54,0.00,,,0.00,WUHU216DAVISVP2,2013-03-21 18:09:00,
2013-03-21 13:14:00,31.9,18.8,30.13,NNW,330,6.0,7.0,58,0.00,,,0.00,WUHU216DAVISVP2,2013-03-21 18:14:00,
2013-03-21 13:19:00,31.3,16.6,30.13,NW,319,4.0,7.0,54,0.00,,,0.00,WUHU216DAVISVP2,2013-03-21 18:19:00,
2013-03-21 13:24:00,31.8,17.0,30.13,NW,318,1.0,6.0,54,0.00,,,0.00,WUHU216DAVISVP2,2013-03-21 18:24:00,
2013-03-21 13:29:00,33.3,18.4,30.12,NNE,30,1.0,3.0,54,0.00,,,0.00,WUHU216DAVISVP2,2013-03-21 18:29:00,
2013-03-21 13:34:00,32.7,16.5,30.12,WNW,293,1.0,2.0,51,0.00,,,0.00,WUHU216DAVISVP2,2013-03-21 18:34:00,
2013-03-21 13:39:00,32.4,17.2,30.12,SW,229,2.0,2.0,53,0.00,,,0.00,WUHU216DAVISVP2,2013-03-21 18:39:00,
2013-03-21 13:44:00,33.1,17.8,30.11,NNW,336,2.0,4.0,53,0.00,,,0.00,WUHU216DAVISVP2,2013-03-21 18:44:00,
2013-03-21 13:49:00,33.0,17.7,30.11,ENE,75,2.0,4.0,53,0.00,,,0.00,WUHU216DAVISVP2,2013-03-21 18:49:00,
2013-03-21 13:54:00,33.1,19.1,30.10,NW,324,0.0,4.0,56,0.00,,,0.00,WUHU216DAVISVP2,2013-03-21 18:54:00,
2013-03-21 13:59:00,32.9,18.1,30.10,SW,229,3.0,4.0,54,0.00,,,0.00,WUHU216DAVISVP2,2013-03-21 18:59:00,
2013-03-21 14:04:00,33.1,18.7,30.10,NW,312,1.0,4.0,55,0.00,,,0.00,WUHU216DAVISVP2,2013-03-21 19:04:00,
2013-03-21 14:09:00,33.1,17.8,30.09,SSE,150,2.0,5.0,53,0.00,,,0.00,WUHU216DAVISVP2,2013-03-21 19:09:00,
2013-03-21 14:14:00,33.0,17.2,30.09,SSW,200,0.0,6.0,52,0.00,,,0.00,WUHU216DAVISVP2,2013-03-21 19:14:00,
2013-03-21 14:19:00,33.7,17.4,30.09,South,172,1.0,6.0,51,0.00,,,0.00,WUHU216DAVISVP2,2013-03-21 19:19:00,
2013-03-21 14:24:00,34.0,17.7,30.09,SSW,204,1.0,4.0,51,0.00,,,0.00,WUHU216DAVISVP2,2013-03-21 19:24:00,
2013-03-21 14:29:00,33.8,17.1,30.09,WNW,302,2.0,7.0,50,0.00,,,0.00,WUHU216DAVISVP2,2013-03-21 19:29:00,
2013-03-21 14:34:00,33.6,17.8,30.08,SSW,212,2.0,7.0,52,0.00,,,0.00,WUHU216DAVISVP2,2013-03-21 19:34:00,
2013-03-21 14:39:00,34.0,19.5,30.08,WNW,301,3.0,4.0,55,0.00,,,0.00,WUHU216DAVISVP2,2013-03-21 19:39:00,
2013-03-21 14:44:00,34.2,18.4,30.07,SW,231,2.0,6.0,52,0.00,,,0.00,WUHU216DAVISVP2,2013-03-21 19:44:00,
2013-03-21 14:49:00,33.8,17.1,30.07,NW,321,2.0,7.0,50,0.00,,,0.00,WUHU216DAVISVP2,2013-03-21 19:49:00,
2013-03-21 14:54:00,33.4,17.6,30.07,NNW,335,2.0,7.0,52,0.00,,,0.00,WUHU216DAVISVP2,2013-03-21 19:54:00,
2013-03-21 14:59:00,33.6,17.8,30.07,NW,309,1.0,6.0,52,0.00,,,0.00,WUHU216DAVISVP2,2013-03-21 19:59:00,
2013-03-21 15:04:00,34.5,18.2,30.06,WSW,252,0.0,3.0,51,0.00,,,0.00,WUHU216DAVISVP2,2013-03-21 20:04:00,
2013-03-21 15:09:00,34.7,18.4,30.07,SSE,155,0.0,4.0,51,0.00,,,0.00,WUHU216DAVISVP2,2013-03-21 20:09:00,
2013-03-21 15:14:00,35.3,18.9,30.07,NE,40,1.0,4.0,51,0.00,,,0.00,WUHU216DAVISVP2,2013-03-21 20:14:00,
2013-03-21 15:19:00,36.0,20.0,30.07,SW,215,1.0,4.0,52,0.00,,,0.00,WUHU216DAVISVP2,2013-03-21 20:19:00,
2013-03-21 15:24:00,36.4,19.9,30.06,SE,146,2.0,4.0,51,0.00,,,0.00,WUHU216DAVISVP2,2013-03-21 20:24:00,
2013-03-21 15:29:00,35.4,18.1,30.06,East,89,2.0,9.0,49,0.00,,,0.00,WUHU216DAVISVP2,2013-03-21 20:29:00,
2013-03-21 15:34:00,35.0,19.1,30.06,NE,40,0.0,9.0,52,0.00,,,0.00,WUHU216DAVISVP2,2013-03-21 20:34:00,
2013-03-21 15:39:00,35.3,19.9,30.06,ENE,77,2.0,7.0,53,0.00,,,0.00,WUHU216DAVISVP2,2013-03-21 20:39:00,
2013-03-21 15:44:00,35.6,19.2,30.05,ENE,61,5.0,5.0,51,0.00,,,0.00,WUHU216DAVISVP2,2013-03-21 20:44:00,
2013-03-21 15:49:00,35.4,18.5,30.05,NNE,24,2.0,5.0,50,0.00,,,0.00,WUHU216DAVISVP2,2013-03-21 20:49:00,
2013-03-21 15:54:00,35.3,18.0,30.05,NNE,30,2.0,9.0,49,0.00,,,0.00,WUHU216DAVISVP2,2013-03-21 20:54:00,
2013-03-21 15:59:00,35.2,18.8,30.05,ENE,75,6.0,9.0,51,0.00,,,0.00,WUHU216DAVISVP2,2013-03-21 20:59:00,
2013-03-21 16:04:00,35.0,17.7,30.05,NNW,328,2.0,8.0,49,0.00,,,0.00,WUHU216DAVISVP2,2013-03-21 21:04:00,
2013-03-21 16:09:00,35.7,18.8,30.05,NNW,332,3.0,8.0,50,0.00,,,0.00,WUHU216DAVISVP2,2013-03-21 21:09:00,
2013-03-21 16:14:00,35.7,19.3,30.05,ESE,115,2.0,6.0,51,0.00,,,0.00,WUHU216DAVISVP2,2013-03-21 21:14:00,
2013-03-21 16:19:00,36.1,17.2,30.04,ENE,73,8.0,10.0,46,0.00,,,0.00,WUHU216DAVISVP2,2013-03-21 21:19:00,
2013-03-21 16:24:00,35.2,16.4,30.04,ENE,63,8.0,10.0,46,0.00,,,0.00,WUHU216DAVISVP2,2013-03-21 21:24:00,
2013-03-21 16:29:00,35.2,17.4,30.04,East,84,5.0,9.0,48,0.00,,,0.00,WUHU216DAVISVP2,2013-03-21 21:29:00,
2013-03-21 16:34:00,34.9,17.6,30.04,ENE,68,3.0,9.0,49,0.00,,,0.00,WUHU216DAVISVP2,2013-03-21 21:34:00,
2013-03-21 16:39:00,35.3,17.5,30.03,SSE,153,0.0,9.0,48,0.00,,,0.00,WUHU216DAVISVP2,2013-03-21 21:39:00,
2013-03-21 16:44:00,35.7,18.4,30.03,NE,45,0.0,7.0,49,0.00,,,0.00,WUHU216DAVISVP2,2013-03-21 21:44:00,
2013-03-21 16:49:00,36.4,19.5,30.03,ENE,69,5.0,6.0,50,0.00,,,0.00,WUHU216DAVISVP2,2013-03-21 21:49:00,
2013-03-21 16:54:00,36.6,19.2,30.03,ENE,59,8.0,8.0,49,0.00,,,0.00,WUHU216DAVISVP2,2013-03-21 21:54:00,
2013-03-21 16:59:00,36.1,18.7,30.03,ENE,70,5.0,8.0,49,0.00,,,0.00,WUHU216DAVISVP2,2013-03-21 21:59:00,
2013-03-21 17:04:00,35.7,17.3,30.04,ENE,62,6.0,8.0,47,0.00,,,0.00,WUHU216DAVISVP2,2013-03-21 22:04:00,
2013-03-21 17:09:00,35.3,18.9,30.04,NE,46,2.0,8.0,51,0.00,,,0.00,WUHU216DAVISVP2,2013-03-21 22:09:00,
2013-03-21 17:14:00,35.4,18.6,30.04,ESE,105,0.0,7.0,50,0.00,,,0.00,WUHU216DAVISVP2,2013-03-21 22:14:00,
2013-03-21 17:19:00,35.7,18.8,30.04,SSE,155,0.0,3.0,50,0.00,,,0.00,WUHU216DAVISVP2,2013-03-21 22:19:00,
2013-03-21 17:24:00,36.0,19.6,30.04,ESE,122,0.0,5.0,51,0.00,,,0.00,WUHU216DAVISVP2,2013-03-21 22:24:00,
2013-03-21 17:29:00,35.7,18.8,30.04,East,82,2.0,5.0,50,0.00,,,0.00,WUHU216DAVISVP2,2013-03-21 22:29:00,
2013-03-21 17:34:00,35.7,18.8,30.05,East,98,1.0,4.0,50,0.00,,,0.00,WUHU216DAVISVP2,2013-03-21 22:34:00,
2013-03-21 17:39:00,35.9,19.5,30.04,SE,131,0.0,2.0,51,0.00,,,0.00,WUHU216DAVISVP2,2013-03-21 22:39:00,
2013-03-21 17:44:00,35.9,19.0,30.04,SW,226,1.0,2.0,50,0.00,,,0.00,WUHU216DAVISVP2,2013-03-21 22:44:00,
2013-03-21 17:49:00,35.8,18.9,30.05,ENE,72,2.0,3.0,50,0.00,,,0.00,WUHU216DAVISVP2,2013-03-21 22:49:00,
2013-03-21 17:54:00,35.3,18.4,30.05,NE,37,0.0,3.0,50,0.00,,,0.00,WUHU216DAVISVP2,2013-03-21 22:54:00,
2013-03-21 17:59:00,35.3,19.4,30.05,ENE,63,0.0,3.0,52,0.00,,,0.00,WUHU216DAVISVP2,2013-03-21 22:59:00,
2013-03-21 18:04:00,35.3,18.9,30.05,ENE,60,3.0,5.0,51,0.00,,,0.00,WUHU216DAVISVP2,2013-03-21 23:04:00,
2013-03-21 18:09:00,35.0,18.7,30.05,ENE,72,2.0,5.0,51,0.00,,,0.00,WUHU216DAVISVP2,2013-03-21 23:09:00,
2013-03-21 18:14:00,34.8,18.5,30.05,ENE,75,1.0,4.0,51,0.00,,,0.00,WUHU216DAVISVP2,2013-03-21 23:14:00,
2013-03-21 18:19:00,34.7,19.3,30.05,ENE,72,2.0,4.0,53,0.00,,,0.00,WUHU216DAVISVP2,2013-03-21 23:19:00,
2013-03-21 18:24:00,34.7,18.8,30.05,ENE,65,1.0,4.0,52,0.00,,,0.00,WUHU216DAVISVP2,2013-03-21 23:24:00,
2013-03-21 18:29:00,34.7,19.3,30.05,ENE,68,1.0,3.0,53,0.00,,,0.00,WUHU216DAVISVP2,2013-03-21 23:29:00,
2013-03-21 18:34:00,34.6,18.3,30.05,ENE,63,1.0,3.0,51,0.00,,,0.00,WUHU216DAVISVP2,2013-03-21 23:34:00,
2013-03-21 18:39:00,34.5,19.1,30.05,SE,135,0.0,3.0,53,0.00,,,0.00,WUHU216DAVISVP2,2013-03-21 23:39:00,
2013-03-21 18:44:00,34.5,19.1,30.05,ENE,60,2.0,3.0,53,0.00,,,0.00,WUHU216DAVISVP2,2013-03-21 23:44:00,
2013-03-21 18:49:00,34.4,19.0,30.05,ENE,73,1.0,2.0,53,0.00,,,0.00,WUHU216DAVISVP2,2013-03-21 23:49:00,
2013-03-21 18:54:00,34.2,18.8,30.05,East,84,0.0,2.0,53,0.00,,,0.00,WUHU216DAVISVP2,2013-03-21 23:54:00,
2013-03-21 18:59:00,34.0,18.2,30.06,ENE,58,1.0,2.0,52,0.00,,,0.00,WUHU216DAVISVP2,2013-03-21 23:59:00,
2013-03-21 19:04:00,33.9,18.5,30.06,ENE,59,0.0,2.0,53,0.00,,,0.00,WUHU216DAVISVP2,2013-03-22 00:04:00,
2013-03-21 19:09:00,33.8,18.9,30.06,ENE,60,0.0,2.0,54,0.00,,,0.00,WUHU216DAVISVP2,2013-03-22 00:09:00,
2013-03-21 19:14:00,33.6,18.7,30.06,ENE,60,0.0,1.0,54,0.00,,,0.00,WUHU216DAVISVP2,2013-03-22 00:14:00,
2013-03-21 19:19:00,33.3,18.4,30.06,ENE,60,0.0,0.0,54,0.00,,,0.00,WUHU216DAVISVP2,2013-03-22 00:19:00,
2013-03-21 19:24:00,33.2,19.2,30.06,ESE,112,0.0,1.0,56,0.00,,,0.00,WUHU216DAVISVP2,2013-03-22 00:24:00,
2013-03-21 19:29:00,33.0,19.4,30.06,East,101,0.0,1.0,57,0.00,,,0.00,WUHU216DAVISVP2,2013-03-22 00:29:00,
2013-03-21 19:34:00,32.8,19.3,30.06,ENE,64,0.0,2.0,57,0.00,,,0.00,WUHU216DAVISVP2,2013-03-22 00:34:00,
2013-03-21 19:39:00,32.6,19.4,30.06,ENE,64,1.0,2.0,58,0.00,,,0.00,WUHU216DAVISVP2,2013-03-22 00:39:00,
2013-03-21 19:44:00,32.5,19.4,30.06,ENE,66,1.0,2.0,58,0.00,,,0.00,WUHU216DAVISVP2,2013-03-22 00:44:00,
2013-03-21 19:49:00,32.4,20.1,30.06,ENE,66,0.0,2.0,60,0.00,,,0.00,WUHU216DAVISVP2,2013-03-22 00:49:00,
2013-03-21 19:54:00,32.3,20.0,30.06,East,81,0.0,1.0,60,0.00,,,0.00,WUHU216DAVISVP2,2013-03-22 00:54:00,
2013-03-21 19:59:00,32.1,20.2,30.06,ENE,77,1.0,1.0,61,0.00,,,0.00,WUHU216DAVISVP2,2013-03-22 00:59:00,
2013-03-21 20:04:00,32.1,19.8,30.06,East,79,0.0,1.0,60,0.00,,,0.00,WUHU216DAVISVP2,2013-03-22 01:04:00,
2013-03-21 20:09:00,32.0,20.1,30.06,ENE,78,0.0,1.0,61,0.00,,,0.00,WUHU216DAVISVP2,2013-03-22 01:09:00,
2013-03-21 20:14:00,31.9,20.0,30.05,ENE,75,1.0,1.0,61,0.00,,,0.00,WUHU216DAVISVP2,2013-03-22 01:14:00,
2013-03-21 20:19:00,31.9,19.6,30.05,ENE,60,1.0,2.0,60,0.00,,,0.00,WUHU216DAVISVP2,2013-03-22 01:19:00,
2013-03-21 20:24:00,31.7,21.6,30.05,ENE,60,3.0,3.0,66,0.00,,,0.00,WUHU216DAVISVP2,2013-03-22 01:24:00,
2013-03-21 20:29:00,31.3,20.6,30.05,ENE,65,2.0,5.0,64,0.00,,,0.00,WUHU216DAVISVP2,2013-03-22 01:29:00,
2013-03-21 20:34:00,31.2,20.5,30.05,ENE,65,3.0,5.0,64,0.00,,,0.00,WUHU216DAVISVP2,2013-03-22 01:34:00,
2013-03-21 20:39:00,31.3,21.0,30.05,ENE,77,2.0,4.0,65,0.00,,,0.00,WUHU216DAVISVP2,2013-03-22 01:39:00,
2013-03-21 20:44:00,31.2,20.9,30.05,ENE,68,2.0,4.0,65,0.00,,,0.00,WUHU216DAVISVP2,2013-03-22 01:44:00,
2013-03-21 20:49:00,31.2,21.2,30.05,ENE,59,3.0,4.0,66,0.00,,,0.00,WUHU216DAVISVP2,2013-03-22 01:49:00,
2013-03-21 20:54:00,31.3,21.6,30.05,ENE,70,3.0,5.0,67,0.00,,,0.00,WUHU216DAVISVP2,2013-03-22 01:54:00,
2013-03-21 20:59:00,31.3,21.7,30.05,ENE,77,5.0,5.0,67,0.00,,,0.00,WUHU216DAVISVP2,2013-03-22 01:59:00,
2013-03-21 21:04:00,31.4,21.8,30.05,East,79,4.0,5.0,67,0.00,,,0.00,WUHU216DAVISVP2,2013-03-22 02:04:00,
2013-03-21 21:09:00,31.4,21.4,30.05,ENE,58,4.0,9.0,66,0.00,,,0.00,WUHU216DAVISVP2,2013-03-22 02:09:00,
2013-03-21 21:14:00,31.5,21.9,30.05,ENE,68,5.0,9.0,67,0.00,,,0.00,WUHU216DAVISVP2,2013-03-22 02:14:00,
2013-03-21 21:19:00,31.5,21.4,30.06,ENE,63,1.0,7.0,66,0.00,,,0.00,WUHU216DAVISVP2,2013-03-22 02:19:00,
2013-03-21 21:24:00,31.5,21.4,30.06,ENE,74,2.0,7.0,66,0.00,,,0.00,WUHU216DAVISVP2,2013-03-22 02:24:00,
2013-03-21 21:29:00,31.5,21.5,30.06,ENE,66,4.0,6.0,66,0.00,,,0.00,WUHU216DAVISVP2,2013-03-22 02:29:00,
2013-03-21 21:34:00,31.5,21.9,30.06,ENE,65,7.0,7.0,67,0.00,,,0.00,WUHU216DAVISVP2,2013-03-22 02:34:00,
2013-03-21 21:39:00,31.5,21.2,30.06,ENE,74,4.0,7.0,65,0.00,,,0.00,WUHU216DAVISVP2,2013-03-22 02:39:00,
2013-03-21 21:44:00,31.5,21.5,30.06,NE,56,2.0,7.0,66,0.00,,,0.00,WUHU216DAVISVP2,2013-03-22 02:44:00,
2013-03-21 21:49:00,31.5,21.5,30.07,ENE,70,6.0,7.0,66,0.00,,,0.00,WUHU216DAVISVP2,2013-03-22 02:49:00,
2013-03-21 21:54:00,31.5,20.8,30.07,East,92,5.0,7.0,64,0.00,,,0.00,WUHU216DAVISVP2,2013-03-22 02:54:00,
2013-03-21 21:59:00,31.6,21.2,30.07,ENE,70,4.0,7.0,65,0.00,,,0.00,WUHU216DAVISVP2,2013-03-22 02:59:00,
2013-03-21 22:04:00,31.6,20.9,30.07,ENE,58,4.0,7.0,64,0.00,,,0.00,WUHU216DAVISVP2,2013-03-22 03:04:00,
2013-03-21 22:09:00,31.6,20.9,30.07,ENE,63,5.0,8.0,64,0.00,,,0.00,WUHU216DAVISVP2,2013-03-22 03:09:00,
2013-03-21 22:14:00,31.6,20.9,30.07,ENE,67,3.0,8.0,64,0.00,,,0.00,WUHU216DAVISVP2,2013-03-22 03:14:00,
2013-03-21 22:19:00,31.6,20.4,30.07,ENE,75,7.0,8.0,63,0.00,,,0.00,WUHU216DAVISVP2,2013-03-22 03:19:00,
2013-03-21 22:24:00,31.6,20.9,30.07,ENE,70,3.0,8.0,64,0.00,,,0.00,WUHU216DAVISVP2,2013-03-22 03:24:00,
2013-03-21 22:29:00,31.6,20.4,30.07,ENE,74,6.0,6.0,63,0.00,,,0.00,WUHU216DAVISVP2,2013-03-22 03:29:00,
2013-03-21 22:34:00,31.6,21.2,30.07,ENE,70,4.0,7.0,65,0.00,,,0.00,WUHU216DAVISVP2,2013-03-22 03:34:00,
2013-03-21 22:39:00,31.5,21.2,30.07,ENE,72,6.0,9.0,65,0.00,,,0.00,WUHU216DAVISVP2,2013-03-22 03:39:00,
2013-03-21 22:44:00,31.4,21.1,30.07,ENE,73,4.0,9.0,65,0.00,,,0.00,WUHU216DAVISVP2,2013-03-22 03:44:00,
2013-03-21 22:49:00,31.4,21.1,30.07,ENE,71,4.0,8.0,65,0.00,,,0.00,WUHU216DAVISVP2,2013-03-22 03:49:00,
2013-03-21 22:54:00,31.3,20.6,30.07,East,79,5.0,8.0,64,0.00,,,0.00,WUHU216DAVISVP2,2013-03-22 03:54:00,
2013-03-21 22:59:00,31.3,21.0,30.07,East,79,4.0,9.0,65,0.00,,,0.00,WUHU216DAVISVP2,2013-03-22 03:59:00,
2013-03-21 23:00:00,31.3,20.9,30.07,ENE,70,3.0,9.0,65,0.00,,,0.00,WUHU216DAVISVP2,2013-03-22 04:00:00,
2013-03-21 23:01:00,31.3,21.3,30.07,ENE,69,4.0,9.0,66,0.00,,,0.00,WUHU216DAVISVP2,2013-03-22 04:01:00,
2013-03-21 23:06:00,31.2,20.9,30.07,ENE,65,4.0,9.0,65,0.00,,,0.00,WUHU216DAVISVP2,2013-03-22 04:06:00,
2013-03-21 23:11:00,31.2,20.9,30.07,ENE,61,5.0,9.0,65,0.00,,,0.00,WUHU216DAVISVP2,2013-03-22 04:11:00,
2013-03-21 23:16:00,31.2,21.2,30.07,ENE,77,3.0,8.0,66,0.00,,,0.00,WUHU216DAVISVP2,2013-03-22 04:16:00,
2013-03-21 23:21:00,31.2,21.2,30.07,ENE,65,4.0,8.0,66,0.00,,,0.00,WUHU216DAVISVP2,2013-03-22 04:21:00,
2013-03-21 23:26:00,31.2,21.2,30.07,ENE,67,5.0,7.0,66,0.00,,,0.00,WUHU216DAVISVP2,2013-03-22 04:26:00,
2013-03-21 23:32:00,31.2,21.2,30.07,ESE,113,2.0,9.0,66,0.00,,,0.00,WUHU216DAVISVP2,2013-03-22 04:32:00,
2013-03-21 23:37:00,31.2,20.9,30.07,ENE,71,4.0,9.0,65,0.00,,,0.00,WUHU216DAVISVP2,2013-03-22 04:37:00,
2013-03-21 23:42:00,31.2,20.9,30.07,NE,51,4.0,9.0,65,0.00,,,0.00,WUHU216DAVISVP2,2013-03-22 04:42:00,
2013-03-21 23:47:00,31.2,21.2,30.06,East,85,7.0,9.0,66,0.00,,,0.00,WUHU216DAVISVP2,2013-03-22 04:47:00,
2013-03-21 23:52:00,31.2,21.2,30.06,ENE,71,2.0,7.0,66,0.00,,,0.00,WUHU216DAVISVP2,2013-03-22 04:52:00,
2013-03-21 23:57:00,31.2,21.2,30.07,ENE,77,4.0,7.0,66,0.00,,,0.00,WUHU216DAVISVP2,2013-03-22 04:57:00,